sensor_id;sensor_type;location;lat;lon;timestamp;P1;durP1;ratioP1;P2;durP2;ratioP2
45694;SDS011;31408;45.468;9.124;2024-03-06T00:01:42;0.40;;;0.40;;
45694;SDS011;31408;45.468;9.124;2024-03-06T00:04:07;0.93;;;0.55;;
45694;SDS011;31408;45.468;9.124;2024-03-06T00:06:32;1.48;;;0.70;;
45694;SDS011;31408;45.468;9.124;2024-03-06T00:08:58;0.80;;;0.65;;
45694;SDS011;31408;45.468;9.124;2024-03-06T00:11:24;0.50;;;0.50;;
45694;SDS011;31408;45.468;9.124;2024-03-06T00:13:49;0.63;;;0.60;;
45694;SDS011;31408;45.468;9.124;2024-03-06T00:16:15;0.60;;;0.60;;
45694;SDS011;31408;45.468;9.124;2024-03-06T00:18:40;0.45;;;0.45;;
45694;SDS011;31408;45.468;9.124;2024-03-06T00:21:06;0.60;;;0.60;;
45694;SDS011;31408;45.468;9.124;2024-03-06T00:23:32;0.60;;;0.60;;
45694;SDS011;31408;45.468;9.124;2024-03-06T00:25:57;0.50;;;0.50;;
45694;SDS011;31408;45.468;9.124;2024-03-06T00:28:22;1.10;;;0.80;;
45694;SDS011;31408;45.468;9.124;2024-03-06T00:30:47;0.70;;;0.40;;
45694;SDS011;31408;45.468;9.124;2024-03-06T00:33:13;0.88;;;0.73;;
45694;SDS011;31408;45.468;9.124;2024-03-06T00:35:39;0.63;;;0.63;;
45694;SDS011;31408;45.468;9.124;2024-03-06T00:38:04;0.38;;;0.38;;
45694;SDS011;31408;45.468;9.124;2024-03-06T00:40:30;1.75;;;1.10;;
45694;SDS011;31408;45.468;9.124;2024-03-06T00:42:58;1.27;;;0.70;;
45694;SDS011;31408;45.468;9.124;2024-03-06T00:45:24;0.60;;;0.60;;
45694;SDS011;31408;45.468;9.124;2024-03-06T00:47:49;0.55;;;0.55;;
45694;SDS011;31408;45.468;9.124;2024-03-06T00:50:14;1.60;;;0.60;;
45694;SDS011;31408;45.468;9.124;2024-03-06T00:52:41;0.40;;;0.40;;
45694;SDS011;31408;45.468;9.124;2024-03-06T00:55:08;1.00;;;0.90;;
45694;SDS011;31408;45.468;9.124;2024-03-06T00:57:33;0.63;;;0.63;;
45694;SDS011;31408;45.468;9.124;2024-03-06T00:59:58;4.78;;;0.65;;
45694;SDS011;31408;45.468;9.124;2024-03-06T01:02:24;0.65;;;0.65;;
45694;SDS011;31408;45.468;9.124;2024-03-06T01:04:49;0.40;;;0.40;;
45694;SDS011;31408;45.468;9.124;2024-03-06T01:07:14;1.05;;;0.43;;
45694;SDS011;31408;45.468;9.124;2024-03-06T01:09:40;0.70;;;0.63;;
45694;SDS011;31408;45.468;9.124;2024-03-06T01:12:05;1.13;;;0.60;;
45694;SDS011;31408;45.468;9.124;2024-03-06T01:14:30;0.50;;;0.40;;
45694;SDS011;31408;45.468;9.124;2024-03-06T01:16:56;1.00;;;0.77;;
45694;SDS011;31408;45.468;9.124;2024-03-06T01:19:21;0.68;;;0.57;;
45694;SDS011;31408;45.468;9.124;2024-03-06T01:21:46;1.27;;;0.88;;
45694;SDS011;31408;45.468;9.124;2024-03-06T01:24:13;1.00;;;0.90;;
45694;SDS011;31408;45.468;9.124;2024-03-06T01:26:39;1.13;;;1.00;;
45694;SDS011;31408;45.468;9.124;2024-03-06T01:29:05;0.60;;;0.60;;
45694;SDS011;31408;45.468;9.124;2024-03-06T01:31:31;2.03;;;0.88;;
45694;SDS011;31408;45.468;9.124;2024-03-06T01:33:56;0.55;;;0.50;;
45694;SDS011;31408;45.468;9.124;2024-03-06T01:36:21;1.08;;;0.98;;
45694;SDS011;31408;45.468;9.124;2024-03-06T01:38:47;0.85;;;0.70;;
45694;SDS011;31408;45.468;9.124;2024-03-06T01:41:12;1.77;;;0.68;;
45694;SDS011;31408;45.468;9.124;2024-03-06T01:43:38;1.10;;;0.95;;
45694;SDS011;31408;45.468;9.124;2024-03-06T01:46:04;3.10;;;0.77;;
45694;SDS011;31408;45.468;9.124;2024-03-06T01:48:33;0.55;;;0.55;;
45694;SDS011;31408;45.468;9.124;2024-03-06T01:50:59;1.05;;;0.77;;
45694;SDS011;31408;45.468;9.124;2024-03-06T01:53:27;1.13;;;0.70;;
45694;SDS011;31408;45.468;9.124;2024-03-06T01:55:55;0.73;;;0.73;;
45694;SDS011;31408;45.468;9.124;2024-03-06T01:58:20;0.40;;;0.40;;
45694;SDS011;31408;45.468;9.124;2024-03-06T02:00:46;1.13;;;0.55;;
45694;SDS011;31408;45.468;9.124;2024-03-06T02:03:12;0.63;;;0.63;;
45694;SDS011;31408;45.468;9.124;2024-03-06T02:05:37;2.83;;;1.02;;
45694;SDS011;31408;45.468;9.124;2024-03-06T02:08:02;0.80;;;0.65;;
45694;SDS011;31408;45.468;9.124;2024-03-06T02:10:28;1.80;;;0.95;;
45694;SDS011;31408;45.468;9.124;2024-03-06T02:12:54;0.50;;;0.50;;
45694;SDS011;31408;45.468;9.124;2024-03-06T02:15:19;0.80;;;0.80;;
45694;SDS011;31408;45.468;9.124;2024-03-06T02:17:45;0.63;;;0.50;;
45694;SDS011;31408;45.468;9.124;2024-03-06T02:20:11;2.25;;;0.73;;
45694;SDS011;31408;45.468;9.124;2024-03-06T02:22:38;1.05;;;0.50;;
45694;SDS011;31408;45.468;9.124;2024-03-06T02:25:03;0.93;;;0.70;;
45694;SDS011;31408;45.468;9.124;2024-03-06T02:27:29;0.60;;;0.60;;
45694;SDS011;31408;45.468;9.124;2024-03-06T02:29:55;1.25;;;0.70;;
45694;SDS011;31408;45.468;9.124;2024-03-06T02:32:31;2.42;;;0.80;;
45694;SDS011;31408;45.468;9.124;2024-03-06T02:34:56;0.60;;;0.55;;
45694;SDS011;31408;45.468;9.124;2024-03-06T02:37:21;1.35;;;1.00;;
45694;SDS011;31408;45.468;9.124;2024-03-06T02:39:47;0.50;;;0.50;;
45694;SDS011;31408;45.468;9.124;2024-03-06T02:42:12;0.68;;;0.68;;
45694;SDS011;31408;45.468;9.124;2024-03-06T02:44:38;1.40;;;0.80;;
45694;SDS011;31408;45.468;9.124;2024-03-06T02:47:03;0.70;;;0.70;;
45694;SDS011;31408;45.468;9.124;2024-03-06T02:49:29;1.15;;;0.70;;
45694;SDS011;31408;45.468;9.124;2024-03-06T02:51:54;1.05;;;0.85;;
45694;SDS011;31408;45.468;9.124;2024-03-06T02:54:20;1.48;;;1.05;;
45694;SDS011;31408;45.468;9.124;2024-03-06T02:56:45;1.48;;;0.90;;
45694;SDS011;31408;45.468;9.124;2024-03-06T02:59:11;1.23;;;1.08;;
45694;SDS011;31408;45.468;9.124;2024-03-06T03:01:36;0.80;;;0.80;;
45694;SDS011;31408;45.468;9.124;2024-03-06T03:04:01;0.50;;;0.50;;
45694;SDS011;31408;45.468;9.124;2024-03-06T03:06:27;0.98;;;0.90;;
45694;SDS011;31408;45.468;9.124;2024-03-06T03:08:54;0.95;;;0.90;;
45694;SDS011;31408;45.468;9.124;2024-03-06T03:11:19;0.80;;;0.80;;
45694;SDS011;31408;45.468;9.124;2024-03-06T03:13:44;2.03;;;0.95;;
45694;SDS011;31408;45.468;9.124;2024-03-06T03:16:16;0.70;;;0.70;;
45694;SDS011;31408;45.468;9.124;2024-03-06T03:18:43;1.25;;;1.15;;
45694;SDS011;31408;45.468;9.124;2024-03-06T03:21:13;1.10;;;1.00;;
45694;SDS011;31408;45.468;9.124;2024-03-06T03:23:39;2.40;;;1.50;;
45694;SDS011;31408;45.468;9.124;2024-03-06T03:26:08;1.83;;;1.42;;
45694;SDS011;31408;45.468;9.124;2024-03-06T03:28:37;1.30;;;1.20;;
45694;SDS011;31408;45.468;9.124;2024-03-06T03:31:02;2.17;;;1.30;;
45694;SDS011;31408;45.468;9.124;2024-03-06T03:33:28;0.90;;;0.90;;
45694;SDS011;31408;45.468;9.124;2024-03-06T03:35:53;0.60;;;0.60;;
45694;SDS011;31408;45.468;9.124;2024-03-06T03:38:18;1.35;;;1.25;;
45694;SDS011;31408;45.468;9.124;2024-03-06T03:40:44;1.33;;;0.65;;
45694;SDS011;31408;45.468;9.124;2024-03-06T03:43:09;1.50;;;1.00;;
45694;SDS011;31408;45.468;9.124;2024-03-06T03:45:35;1.83;;;1.27;;
45694;SDS011;31408;45.468;9.124;2024-03-06T03:48:01;1.02;;;0.98;;
45694;SDS011;31408;45.468;9.124;2024-03-06T03:50:28;1.42;;;1.27;;
45694;SDS011;31408;45.468;9.124;2024-03-06T03:52:53;1.92;;;1.35;;
45694;SDS011;31408;45.468;9.124;2024-03-06T03:55:18;1.30;;;1.20;;
45694;SDS011;31408;45.468;9.124;2024-03-06T03:57:44;1.60;;;1.50;;
45694;SDS011;31408;45.468;9.124;2024-03-06T04:00:09;1.02;;;0.90;;
45694;SDS011;31408;45.468;9.124;2024-03-06T04:02:37;1.35;;;1.08;;
45694;SDS011;31408;45.468;9.124;2024-03-06T04:05:03;1.60;;;1.23;;
45694;SDS011;31408;45.468;9.124;2024-03-06T04:07:30;1.73;;;1.33;;
45694;SDS011;31408;45.468;9.124;2024-03-06T04:09:55;1.98;;;1.70;;
45694;SDS011;31408;45.468;9.124;2024-03-06T04:12:20;2.15;;;1.23;;
45694;SDS011;31408;45.468;9.124;2024-03-06T04:14:45;2.20;;;1.42;;
45694;SDS011;31408;45.468;9.124;2024-03-06T04:17:11;1.60;;;1.50;;
45694;SDS011;31408;45.468;9.124;2024-03-06T04:19:36;3.65;;;1.88;;
45694;SDS011;31408;45.468;9.124;2024-03-06T04:22:02;2.78;;;1.63;;
45694;SDS011;31408;45.468;9.124;2024-03-06T04:24:27;2.03;;;1.75;;
45694;SDS011;31408;45.468;9.124;2024-03-06T04:26:53;4.10;;;1.70;;
45694;SDS011;31408;45.468;9.124;2024-03-06T04:29:18;2.70;;;2.03;;
45694;SDS011;31408;45.468;9.124;2024-03-06T04:31:43;2.97;;;2.65;;
45694;SDS011;31408;45.468;9.124;2024-03-06T04:34:09;4.35;;;2.95;;
45694;SDS011;31408;45.468;9.124;2024-03-06T04:36:34;3.85;;;2.67;;
45694;SDS011;31408;45.468;9.124;2024-03-06T04:38:59;5.57;;;3.00;;
45694;SDS011;31408;45.468;9.124;2024-03-06T04:41:25;4.70;;;3.05;;
45694;SDS011;31408;45.468;9.124;2024-03-06T04:43:50;4.18;;;3.15;;
45694;SDS011;31408;45.468;9.124;2024-03-06T04:46:17;4.10;;;3.30;;
45694;SDS011;31408;45.468;9.124;2024-03-06T04:48:42;4.03;;;3.30;;
45694;SDS011;31408;45.468;9.124;2024-03-06T04:51:13;4.03;;;2.40;;
45694;SDS011;31408;45.468;9.124;2024-03-06T04:53:38;4.43;;;2.78;;
45694;SDS011;31408;45.468;9.124;2024-03-06T04:56:03;6.35;;;3.42;;
45694;SDS011;31408;45.468;9.124;2024-03-06T04:58:29;3.13;;;2.25;;
45694;SDS011;31408;45.468;9.124;2024-03-06T05:00:54;4.68;;;3.13;;
45694;SDS011;31408;45.468;9.124;2024-03-06T05:03:19;4.38;;;3.67;;
45694;SDS011;31408;45.468;9.124;2024-03-06T05:05:45;5.72;;;3.50;;
45694;SDS011;31408;45.468;9.124;2024-03-06T05:08:10;4.78;;;3.08;;
45694;SDS011;31408;45.468;9.124;2024-03-06T05:10:36;4.25;;;3.17;;
45694;SDS011;31408;45.468;9.124;2024-03-06T05:13:01;6.38;;;4.20;;
45694;SDS011;31408;45.468;9.124;2024-03-06T05:15:27;5.03;;;2.78;;
45694;SDS011;31408;45.468;9.124;2024-03-06T05:17:52;3.00;;;2.58;;
45694;SDS011;31408;45.468;9.124;2024-03-06T05:20:17;5.50;;;3.40;;
45694;SDS011;31408;45.468;9.124;2024-03-06T05:22:43;3.40;;;2.30;;
45694;SDS011;31408;45.468;9.124;2024-03-06T05:25:08;2.42;;;2.13;;
45694;SDS011;31408;45.468;9.124;2024-03-06T05:27:34;3.25;;;1.83;;
45694;SDS011;31408;45.468;9.124;2024-03-06T05:29:59;2.60;;;1.38;;
45694;SDS011;31408;45.468;9.124;2024-03-06T05:32:24;0.80;;;0.80;;
45694;SDS011;31408;45.468;9.124;2024-03-06T05:34:50;2.15;;;1.58;;
45694;SDS011;31408;45.468;9.124;2024-03-06T05:37:15;2.90;;;1.38;;
45694;SDS011;31408;45.468;9.124;2024-03-06T05:39:40;0.93;;;0.80;;
45694;SDS011;31408;45.468;9.124;2024-03-06T05:42:07;3.15;;;1.05;;
45694;SDS011;31408;45.468;9.124;2024-03-06T05:44:33;1.02;;;0.65;;
45694;SDS011;31408;45.468;9.124;2024-03-06T05:47:02;1.98;;;1.00;;
45694;SDS011;31408;45.468;9.124;2024-03-06T05:49:28;0.73;;;0.73;;
45694;SDS011;31408;45.468;9.124;2024-03-06T05:51:53;0.85;;;0.85;;
45694;SDS011;31408;45.468;9.124;2024-03-06T05:54:22;0.68;;;0.68;;
45694;SDS011;31408;45.468;9.124;2024-03-06T05:56:48;0.65;;;0.65;;
45694;SDS011;31408;45.468;9.124;2024-03-06T05:59:14;1.45;;;1.02;;
45694;SDS011;31408;45.468;9.124;2024-03-06T06:01:40;3.22;;;0.80;;
45694;SDS011;31408;45.468;9.124;2024-03-06T06:04:07;0.73;;;0.73;;
45694;SDS011;31408;45.468;9.124;2024-03-06T06:06:34;2.38;;;0.80;;
45694;SDS011;31408;45.468;9.124;2024-03-06T06:08:59;5.75;;;0.95;;
45694;SDS011;31408;45.468;9.124;2024-03-06T06:11:29;0.63;;;0.63;;
45694;SDS011;31408;45.468;9.124;2024-03-06T06:13:55;4.43;;;0.98;;
45694;SDS011;31408;45.468;9.124;2024-03-06T06:16:20;0.55;;;0.55;;
45694;SDS011;31408;45.468;9.124;2024-03-06T06:18:45;1.10;;;0.70;;
45694;SDS011;31408;45.468;9.124;2024-03-06T06:21:11;0.50;;;0.38;;
45694;SDS011;31408;45.468;9.124;2024-03-06T06:23:36;0.65;;;0.52;;
45694;SDS011;31408;45.468;9.124;2024-03-06T06:26:02;1.33;;;0.65;;
45694;SDS011;31408;45.468;9.124;2024-03-06T06:28:27;1.80;;;0.60;;
45694;SDS011;31408;45.468;9.124;2024-03-06T06:30:53;0.90;;;0.90;;
45694;SDS011;31408;45.468;9.124;2024-03-06T06:33:19;0.82;;;0.50;;
45694;SDS011;31408;45.468;9.124;2024-03-06T06:35:44;2.85;;;1.05;;
45694;SDS011;31408;45.468;9.124;2024-03-06T06:38:10;0.55;;;0.55;;
45694;SDS011;31408;45.468;9.124;2024-03-06T06:40:35;1.60;;;0.80;;
45694;SDS011;31408;45.468;9.124;2024-03-06T06:43:06;1.73;;;0.82;;
45694;SDS011;31408;45.468;9.124;2024-03-06T06:45:31;1.20;;;1.10;;
45694;SDS011;31408;45.468;9.124;2024-03-06T06:47:57;2.35;;;1.58;;
45694;SDS011;31408;45.468;9.124;2024-03-06T06:50:22;5.10;;;1.92;;
45694;SDS011;31408;45.468;9.124;2024-03-06T06:53:06;3.65;;;1.52;;
45694;SDS011;31408;45.468;9.124;2024-03-06T06:55:31;0.88;;;0.88;;
45694;SDS011;31408;45.468;9.124;2024-03-06T06:57:56;1.00;;;0.77;;
45694;SDS011;31408;45.468;9.124;2024-03-06T07:00:22;2.08;;;1.00;;
45694;SDS011;31408;45.468;9.124;2024-03-06T07:02:48;0.98;;;0.95;;
45694;SDS011;31408;45.468;9.124;2024-03-06T07:05:14;1.33;;;1.10;;
45694;SDS011;31408;45.468;9.124;2024-03-06T07:07:39;2.40;;;1.10;;
45694;SDS011;31408;45.468;9.124;2024-03-06T07:10:05;1.75;;;1.33;;
45694;SDS011;31408;45.468;9.124;2024-03-06T07:12:31;2.08;;;1.25;;
45694;SDS011;31408;45.468;9.124;2024-03-06T07:14:57;1.95;;;0.95;;
45694;SDS011;31408;45.468;9.124;2024-03-06T07:17:22;2.65;;;1.13;;
45694;SDS011;31408;45.468;9.124;2024-03-06T07:19:48;1.75;;;1.52;;
45694;SDS011;31408;45.468;9.124;2024-03-06T07:22:13;1.25;;;1.15;;
45694;SDS011;31408;45.468;9.124;2024-03-06T07:24:38;3.65;;;1.45;;
45694;SDS011;31408;45.468;9.124;2024-03-06T07:27:04;3.25;;;1.83;;
45694;SDS011;31408;45.468;9.124;2024-03-06T07:29:29;1.45;;;1.27;;
45694;SDS011;31408;45.468;9.124;2024-03-06T07:31:55;1.20;;;1.10;;
45694;SDS011;31408;45.468;9.124;2024-03-06T07:34:20;3.47;;;1.77;;
45694;SDS011;31408;45.468;9.124;2024-03-06T07:36:48;4.13;;;2.05;;
45694;SDS011;31408;45.468;9.124;2024-03-06T07:39:18;4.65;;;2.33;;
45694;SDS011;31408;45.468;9.124;2024-03-06T07:41:44;3.20;;;1.95;;
45694;SDS011;31408;45.468;9.124;2024-03-06T07:44:09;5.35;;;1.38;;
45694;SDS011;31408;45.468;9.124;2024-03-06T07:46:35;5.20;;;1.67;;
45694;SDS011;31408;45.468;9.124;2024-03-06T07:49:00;1.73;;;1.33;;
45694;SDS011;31408;45.468;9.124;2024-03-06T07:51:28;1.60;;;1.38;;
45694;SDS011;31408;45.468;9.124;2024-03-06T07:53:53;1.55;;;0.90;;
45694;SDS011;31408;45.468;9.124;2024-03-06T07:56:19;2.25;;;0.77;;
45694;SDS011;31408;45.468;9.124;2024-03-06T07:58:44;2.50;;;0.98;;
45694;SDS011;31408;45.468;9.124;2024-03-06T08:01:10;1.58;;;0.80;;
45694;SDS011;31408;45.468;9.124;2024-03-06T08:03:38;1.80;;;1.70;;
45694;SDS011;31408;45.468;9.124;2024-03-06T08:06:04;1.13;;;1.02;;
45694;SDS011;31408;45.468;9.124;2024-03-06T08:08:30;3.50;;;1.38;;
45694;SDS011;31408;45.468;9.124;2024-03-06T08:10:55;2.67;;;1.00;;
45694;SDS011;31408;45.468;9.124;2024-03-06T08:13:21;1.58;;;0.77;;
45694;SDS011;31408;45.468;9.124;2024-03-06T08:15:46;1.88;;;0.85;;
45694;SDS011;31408;45.468;9.124;2024-03-06T08:18:12;1.90;;;0.90;;
45694;SDS011;31408;45.468;9.124;2024-03-06T08:20:38;0.85;;;0.80;;
45694;SDS011;31408;45.468;9.124;2024-03-06T08:23:04;2.47;;;2.03;;
45694;SDS011;31408;45.468;9.124;2024-03-06T08:25:29;5.88;;;2.20;;
45694;SDS011;31408;45.468;9.124;2024-03-06T08:27:58;0.95;;;0.93;;
45694;SDS011;31408;45.468;9.124;2024-03-06T08:30:24;2.70;;;0.98;;
45694;SDS011;31408;45.468;9.124;2024-03-06T08:32:49;1.40;;;0.52;;
45694;SDS011;31408;45.468;9.124;2024-03-06T08:35:16;0.80;;;0.63;;
45694;SDS011;31408;45.468;9.124;2024-03-06T08:37:43;3.13;;;1.15;;
45694;SDS011;31408;45.468;9.124;2024-03-06T08:40:09;0.70;;;0.70;;
45694;SDS011;31408;45.468;9.124;2024-03-06T08:42:41;0.70;;;0.70;;
45694;SDS011;31408;45.468;9.124;2024-03-06T08:45:07;3.17;;;1.10;;
45694;SDS011;31408;45.468;9.124;2024-03-06T08:47:33;1.13;;;1.02;;
45694;SDS011;31408;45.468;9.124;2024-03-06T08:49:58;1.08;;;0.98;;
45694;SDS011;31408;45.468;9.124;2024-03-06T08:52:24;3.03;;;1.27;;
45694;SDS011;31408;45.468;9.124;2024-03-06T08:54:49;2.08;;;0.57;;
45694;SDS011;31408;45.468;9.124;2024-03-06T08:57:14;2.17;;;0.65;;
45694;SDS011;31408;45.468;9.124;2024-03-06T08:59:41;1.40;;;0.70;;
45694;SDS011;31408;45.468;9.124;2024-03-06T09:02:18;1.58;;;1.33;;
45694;SDS011;31408;45.468;9.124;2024-03-06T09:04:45;3.88;;;1.00;;
45694;SDS011;31408;45.468;9.124;2024-03-06T09:07:10;1.15;;;1.05;;
45694;SDS011;31408;45.468;9.124;2024-03-06T09:09:36;1.67;;;1.23;;
45694;SDS011;31408;45.468;9.124;2024-03-06T09:12:05;0.95;;;0.80;;
45694;SDS011;31408;45.468;9.124;2024-03-06T09:14:32;1.02;;;0.90;;
45694;SDS011;31408;45.468;9.124;2024-03-06T09:16:57;1.55;;;0.77;;
45694;SDS011;31408;45.468;9.124;2024-03-06T09:19:22;2.08;;;1.55;;
45694;SDS011;31408;45.468;9.124;2024-03-06T09:21:48;5.25;;;1.35;;
45694;SDS011;31408;45.468;9.124;2024-03-06T09:24:13;2.33;;;1.05;;
45694;SDS011;31408;45.468;9.124;2024-03-06T09:26:39;1.25;;;0.90;;
45694;SDS011;31408;45.468;9.124;2024-03-06T09:29:04;1.80;;;1.05;;
45694;SDS011;31408;45.468;9.124;2024-03-06T09:31:30;2.45;;;1.35;;
45694;SDS011;31408;45.468;9.124;2024-03-06T09:33:55;5.55;;;1.00;;
45694;SDS011;31408;45.468;9.124;2024-03-06T09:36:20;3.80;;;1.95;;
45694;SDS011;31408;45.468;9.124;2024-03-06T09:38:46;3.42;;;1.80;;
45694;SDS011;31408;45.468;9.124;2024-03-06T09:41:11;2.08;;;1.40;;
45694;SDS011;31408;45.468;9.124;2024-03-06T09:43:36;2.25;;;1.67;;
45694;SDS011;31408;45.468;9.124;2024-03-06T09:46:02;1.55;;;1.45;;
45694;SDS011;31408;45.468;9.124;2024-03-06T09:48:27;1.70;;;1.20;;
45694;SDS011;31408;45.468;9.124;2024-03-06T09:50:54;2.88;;;1.58;;
45694;SDS011;31408;45.468;9.124;2024-03-06T09:53:22;5.00;;;1.95;;
45694;SDS011;31408;45.468;9.124;2024-03-06T09:55:49;3.65;;;1.48;;
45694;SDS011;31408;45.468;9.124;2024-03-06T09:58:14;6.28;;;2.20;;
45694;SDS011;31408;45.468;9.124;2024-03-06T10:00:40;4.97;;;2.33;;
45694;SDS011;31408;45.468;9.124;2024-03-06T10:03:05;5.05;;;2.45;;
45694;SDS011;31408;45.468;9.124;2024-03-06T10:05:30;5.53;;;2.55;;
45694;SDS011;31408;45.468;9.124;2024-03-06T10:07:57;2.70;;;2.50;;
45694;SDS011;31408;45.468;9.124;2024-03-06T10:10:25;11.23;;;2.70;;
45694;SDS011;31408;45.468;9.124;2024-03-06T10:12:52;6.80;;;3.13;;
45694;SDS011;31408;45.468;9.124;2024-03-06T10:15:17;7.38;;;3.13;;
45694;SDS011;31408;45.468;9.124;2024-03-06T10:17:44;6.97;;;3.28;;
45694;SDS011;31408;45.468;9.124;2024-03-06T10:22:45;7.72;;;3.30;;
45694;SDS011;31408;45.468;9.124;2024-03-06T10:25:10;5.75;;;3.08;;
45694;SDS011;31408;45.468;9.124;2024-03-06T10:27:36;6.78;;;3.53;;
45694;SDS011;31408;45.468;9.124;2024-03-06T10:30:02;7.93;;;3.92;;
45694;SDS011;31408;45.468;9.124;2024-03-06T10:32:28;10.63;;;3.30;;
45694;SDS011;31408;45.468;9.124;2024-03-06T10:34:55;6.57;;;3.55;;
45694;SDS011;31408;45.468;9.124;2024-03-06T10:37:20;5.60;;;3.65;;
45694;SDS011;31408;45.468;9.124;2024-03-06T10:39:47;7.55;;;3.65;;
45694;SDS011;31408;45.468;9.124;2024-03-06T10:42:16;8.05;;;4.13;;
45694;SDS011;31408;45.468;9.124;2024-03-06T10:44:45;8.25;;;3.75;;
45694;SDS011;31408;45.468;9.124;2024-03-06T10:47:13;8.10;;;4.10;;
45694;SDS011;31408;45.468;9.124;2024-03-06T10:49:40;9.02;;;4.20;;
45694;SDS011;31408;45.468;9.124;2024-03-06T10:52:08;10.93;;;4.15;;
45694;SDS011;31408;45.468;9.124;2024-03-06T10:54:35;9.70;;;3.97;;
45694;SDS011;31408;45.468;9.124;2024-03-06T10:57:02;8.75;;;4.10;;
45694;SDS011;31408;45.468;9.124;2024-03-06T10:59:28;7.03;;;3.70;;
45694;SDS011;31408;45.468;9.124;2024-03-06T11:01:54;13.93;;;4.35;;
45694;SDS011;31408;45.468;9.124;2024-03-06T11:04:21;10.40;;;4.50;;
45694;SDS011;31408;45.468;9.124;2024-03-06T11:06:46;12.65;;;6.32;;
45694;SDS011;31408;45.468;9.124;2024-03-06T11:09:13;10.93;;;5.03;;
45694;SDS011;31408;45.468;9.124;2024-03-06T11:11:47;9.02;;;4.70;;
45694;SDS011;31408;45.468;9.124;2024-03-06T11:14:13;9.23;;;5.10;;
45694;SDS011;31408;45.468;9.124;2024-03-06T11:16:55;23.27;;;8.18;;
45694;SDS011;31408;45.468;9.124;2024-03-06T11:21:48;11.13;;;4.32;;
45694;SDS011;31408;45.468;9.124;2024-03-06T11:24:14;8.07;;;4.10;;
45694;SDS011;31408;45.468;9.124;2024-03-06T11:26:50;4.57;;;3.25;;
45694;SDS011;31408;45.468;9.124;2024-03-06T11:29:16;7.78;;;3.00;;
45694;SDS011;31408;45.468;9.124;2024-03-06T11:32:05;9.88;;;4.05;;
45694;SDS011;31408;45.468;9.124;2024-03-06T11:34:35;8.60;;;3.17;;
45694;SDS011;31408;45.468;9.124;2024-03-06T11:37:03;7.75;;;3.20;;
45694;SDS011;31408;45.468;9.124;2024-03-06T11:39:32;7.22;;;3.08;;
45694;SDS011;31408;45.468;9.124;2024-03-06T11:41:59;8.23;;;3.88;;
45694;SDS011;31408;45.468;9.124;2024-03-06T11:44:24;5.43;;;3.25;;
45694;SDS011;31408;45.468;9.124;2024-03-06T11:49:20;12.60;;;3.78;;
45694;SDS011;31408;45.468;9.124;2024-03-06T11:51:46;5.47;;;3.25;;
45694;SDS011;31408;45.468;9.124;2024-03-06T11:54:12;5.22;;;3.28;;
45694;SDS011;31408;45.468;9.124;2024-03-06T11:56:39;11.05;;;3.40;;
45694;SDS011;31408;45.468;9.124;2024-03-06T11:59:04;7.82;;;2.80;;
45694;SDS011;31408;45.468;9.124;2024-03-06T12:01:31;12.98;;;3.30;;
45694;SDS011;31408;45.468;9.124;2024-03-06T12:03:57;4.50;;;3.15;;
45694;SDS011;31408;45.468;9.124;2024-03-06T12:06:23;17.58;;;4.00;;
45694;SDS011;31408;45.468;9.124;2024-03-06T12:08:48;6.85;;;3.45;;
45694;SDS011;31408;45.468;9.124;2024-03-06T12:11:13;5.32;;;3.28;;
45694;SDS011;31408;45.468;9.124;2024-03-06T12:13:41;9.20;;;3.92;;
45694;SDS011;31408;45.468;9.124;2024-03-06T12:16:06;14.02;;;4.32;;
45694;SDS011;31408;45.468;9.124;2024-03-06T12:18:35;13.43;;;4.55;;
45694;SDS011;31408;45.468;9.124;2024-03-06T12:21:01;30.92;;;5.07;;
45694;SDS011;31408;45.468;9.124;2024-03-06T12:23:28;6.38;;;3.08;;
45694;SDS011;31408;45.468;9.124;2024-03-06T12:26:06;6.28;;;2.63;;
45694;SDS011;31408;45.468;9.124;2024-03-06T12:28:34;7.50;;;2.92;;
45694;SDS011;31408;45.468;9.124;2024-03-06T12:31:01;5.30;;;3.17;;
45694;SDS011;31408;45.468;9.124;2024-03-06T12:33:26;8.18;;;3.35;;
45694;SDS011;31408;45.468;9.124;2024-03-06T12:36:04;5.03;;;2.60;;
45694;SDS011;31408;45.468;9.124;2024-03-06T12:38:30;4.90;;;1.90;;
45694;SDS011;31408;45.468;9.124;2024-03-06T12:40:56;3.72;;;2.10;;
45694;SDS011;31408;45.468;9.124;2024-03-06T12:43:21;4.55;;;1.65;;
45694;SDS011;31408;45.468;9.124;2024-03-06T12:45:46;13.60;;;2.58;;
45694;SDS011;31408;45.468;9.124;2024-03-06T12:48:12;1.33;;;0.95;;
45694;SDS011;31408;45.468;9.124;2024-03-06T12:50:38;3.03;;;1.13;;
45694;SDS011;31408;45.468;9.124;2024-03-06T12:53:03;3.35;;;1.10;;
45694;SDS011;31408;45.468;9.124;2024-03-06T12:55:30;2.35;;;0.65;;
45694;SDS011;31408;45.468;9.124;2024-03-06T12:57:56;2.28;;;0.90;;
45694;SDS011;31408;45.468;9.124;2024-03-06T13:00:22;2.85;;;1.10;;
45694;SDS011;31408;45.468;9.124;2024-03-06T13:02:49;6.90;;;1.55;;
45694;SDS011;31408;45.468;9.124;2024-03-06T13:05:16;0.90;;;0.68;;
45694;SDS011;31408;45.468;9.124;2024-03-06T13:07:42;0.93;;;0.55;;
45694;SDS011;31408;45.468;9.124;2024-03-06T13:10:07;1.70;;;0.95;;
45694;SDS011;31408;45.468;9.124;2024-03-06T13:12:36;0.65;;;0.65;;
45694;SDS011;31408;45.468;9.124;2024-03-06T13:15:01;1.48;;;0.77;;
45694;SDS011;31408;45.468;9.124;2024-03-06T13:17:26;0.75;;;0.55;;
45694;SDS011;31408;45.468;9.124;2024-03-06T13:19:54;0.93;;;0.77;;
45694;SDS011;31408;45.468;9.124;2024-03-06T13:22:19;4.63;;;0.70;;
45694;SDS011;31408;45.468;9.124;2024-03-06T13:24:44;1.00;;;0.47;;
45694;SDS011;31408;45.468;9.124;2024-03-06T13:27:10;1.33;;;1.23;;
45694;SDS011;31408;45.468;9.124;2024-03-06T13:29:35;4.28;;;1.30;;
45694;SDS011;31408;45.468;9.124;2024-03-06T13:32:00;0.65;;;0.65;;
45694;SDS011;31408;45.468;9.124;2024-03-06T13:34:26;0.75;;;0.75;;
45694;SDS011;31408;45.468;9.124;2024-03-06T13:36:51;1.02;;;0.93;;
45694;SDS011;31408;45.468;9.124;2024-03-06T13:39:16;4.05;;;0.85;;
45694;SDS011;31408;45.468;9.124;2024-03-06T13:41:42;2.35;;;0.52;;
45694;SDS011;31408;45.468;9.124;2024-03-06T13:44:07;3.22;;;0.52;;
45694;SDS011;31408;45.468;9.124;2024-03-06T13:46:33;0.43;;;0.40;;
45694;SDS011;31408;45.468;9.124;2024-03-06T13:48:58;1.25;;;0.93;;
45694;SDS011;31408;45.468;9.124;2024-03-06T13:51:24;0.68;;;0.52;;
45694;SDS011;31408;45.468;9.124;2024-03-06T13:53:49;2.65;;;0.50;;
45694;SDS011;31408;45.468;9.124;2024-03-06T13:56:14;0.57;;;0.50;;
45694;SDS011;31408;45.468;9.124;2024-03-06T13:58:40;0.45;;;0.45;;
45694;SDS011;31408;45.468;9.124;2024-03-06T14:01:06;0.22;;;0.22;;
45694;SDS011;31408;45.468;9.124;2024-03-06T14:03:31;0.35;;;0.35;;
45694;SDS011;31408;45.468;9.124;2024-03-06T14:05:59;0.30;;;0.30;;
45694;SDS011;31408;45.468;9.124;2024-03-06T14:08:24;0.40;;;0.40;;
45694;SDS011;31408;45.468;9.124;2024-03-06T14:10:50;0.50;;;0.50;;
45694;SDS011;31408;45.468;9.124;2024-03-06T14:13:16;1.42;;;0.47;;
45694;SDS011;31408;45.468;9.124;2024-03-06T14:15:41;0.30;;;0.30;;
45694;SDS011;31408;45.468;9.124;2024-03-06T14:18:06;0.55;;;0.40;;
45694;SDS011;31408;45.468;9.124;2024-03-06T14:20:32;0.35;;;0.30;;
45694;SDS011;31408;45.468;9.124;2024-03-06T14:22:58;2.25;;;0.65;;
45694;SDS011;31408;45.468;9.124;2024-03-06T14:25:23;2.38;;;0.95;;
45694;SDS011;31408;45.468;9.124;2024-03-06T14:27:48;0.57;;;0.57;;
45694;SDS011;31408;45.468;9.124;2024-03-06T14:30:14;0.90;;;0.60;;
45694;SDS011;31408;45.468;9.124;2024-03-06T14:32:40;1.13;;;1.05;;
45694;SDS011;31408;45.468;9.124;2024-03-06T14:35:06;0.40;;;0.40;;
45694;SDS011;31408;45.468;9.124;2024-03-06T14:37:31;3.08;;;0.60;;
45694;SDS011;31408;45.468;9.124;2024-03-06T14:39:57;0.88;;;0.75;;
45694;SDS011;31408;45.468;9.124;2024-03-06T14:42:22;1.23;;;0.73;;
45694;SDS011;31408;45.468;9.124;2024-03-06T14:44:48;3.50;;;0.70;;
45694;SDS011;31408;45.468;9.124;2024-03-06T14:47:14;2.50;;;0.75;;
45694;SDS011;31408;45.468;9.124;2024-03-06T14:49:42;2.05;;;0.50;;